Time;durP1;ratioP1;P1;durP2;ratioP2;P2;SDS_P1;SDS_P2;PMS_P1;PMS_P2;Temp;Humidity;BMP_temperature;BMP_pressure;BME280_temperature;BME280_humidity;BME280_pressure;Samples;Min_cycle;Max_cycle;Signal;HPM_P1;HPM_P2
2022/04/01 00:00:58;;;;;;;;;6.50;3.00;;;;;4.59;54.59;100263.34;6217695;22;45317;-88
2022/04/01 05:51:15;;;;;;;;;2.00;2.00;;;;;3.97;65.76;100143.56;6174054;23;44716;-90
2022/04/01 06:08:25;;;;;;;;;5.00;4.25;;;;;4.00;65.27;100161.81;5832445;24;45150;-90
2022/04/01 06:46:50;;;;;;;;;;;;;;;;;;;;;
2022/04/01 06:50:16;;;;;;;;;;;;;;;;;;;;;
2022/04/01 06:53:08;;;;;;;;;6.00;6.00;;;;;3.58;66.81;100186.38;6071414;23;72820;-89
2022/04/01 06:59:18;;;;;;;;;11.50;8.75;;;;;3.52;67.41;100184.56;6039832;23;45742;-90
2022/04/01 07:11:53;;;;;;;;;8.50;7.00;;;;;3.71;67.34;100218.69;6076461;23;45463;-83
2022/04/01 09:26:35;;;;;;;;;3.50;3.50;;;;;3.72;67.18;100407.88;6226772;22;46902;-86
2022/04/01 09:29:11;;;;;;;;;10.50;8.75;;;;;3.73;67.22;100401.81;6260874;22;45375;-89
2022/04/01 09:32:05;;;;;;;;;16.25;13.25;;;;;3.87;67.43;100409.88;6257724;22;47191;-88
2022/04/01 09:34:48;;;;;;;;;11.50;9.50;;;;;3.71;66.90;100396.56;6290222;22;44715;-89
2022/04/01 09:37:16;;;;;;;;;10.75;10.75;;;;;3.91;66.92;100424.72;6253990;22;45587;-89
2022/04/01 09:39:48;;;;;;;;;7.00;7.00;;;;;3.73;67.03;100394.88;6249348;22;45375;-89
2022/04/01 09:42:24;;;;;;;;;10.50;9.00;;;;;3.90;66.43;100421.25;6250709;22;46991;-90
2022/04/01 09:44:57;;;;;;;;;11.50;10.25;;;;;3.60;66.70;100390.28;6249879;22;45330;-88
2022/04/01 09:47:22;;;;;;;;;10.00;9.50;;;;;3.68;66.65;100417.34;6250129;22;45417;-87
2022/04/01 09:49:48;;;;;;;;;14.25;14.25;;;;;3.63;67.12;100416.38;6250476;22;45515;-88
2022/04/01 09:52:21;;;;;;;;;8.75;8.75;;;;;3.61;66.74;100406.78;6248670;22;47762;-88
2022/04/01 09:54:49;;;;;;;;;11.00;11.00;;;;;3.70;67.05;100415.66;6282350;22;45228;-91
2022/04/01 09:57:18;;;;;;;;;11.75;10.00;;;;;3.66;66.65;100423.38;6253433;22;45280;-91
2022/04/01 09:59:48;;;;;;;;;7.00;6.25;;;;;3.77;66.74;100427.06;6278858;22;45338;-89
2022/04/01 10:02:23;;;;;;;;;10.75;9.00;;;;;3.87;66.58;100470.63;6280453;22;46346;-92
2022/04/01 10:04:49;;;;;;;;;11.75;10.00;;;;;3.73;66.99;100435.66;6254672;22;45302;-90
2022/04/01 10:07:35;;;;;;;;;12.25;11.50;;;;;3.89;66.85;100468.94;6282264;22;45457;-91
2022/04/01 10:10:06;;;;;;;;;7.00;6.00;;;;;3.63;67.00;100423.31;6280658;22;45550;-85
2022/04/01 10:12:41;;;;;;;;;12.25;9.75;;;;;3.91;67.05;100463.78;6249170;22;48177;-84
2022/04/01 10:15:07;;;;;;;;;10.00;10.00;;;;;3.94;67.22;100472.50;6247865;22;45331;-86
2022/04/01 10:17:37;;;;;;;;;10.75;10.75;;;;;3.97;66.88;100479.50;6248462;22;45356;-83
2022/04/01 10:20:07;;;;;;;;;16.00;13.25;;;;;3.97;66.38;100474.28;6272809;22;45258;-83
2022/04/01 10:22:37;;;;;;;;;4.00;4.00;;;;;3.94;66.13;100482.06;6248717;22;48384;-84
2022/04/01 10:25:38;;;;;;;;;9.50;7.50;;;;;3.71;65.87;100460.78;6249145;22;45256;-83
2022/04/01 10:28:05;;;;;;;;;10.00;9.00;;;;;3.62;66.04;100453.66;6219353;22;45190;-82
2022/04/01 10:30:35;;;;;;;;;12.75;12.75;;;;;3.80;66.04;100489.59;6219754;22;45442;-87
2022/04/01 10:33:06;;;;;;;;;11.00;8.75;;;;;3.62;66.27;100455.41;6218243;22;46920;-83
2022/04/01 10:35:38;;;;;;;;;9.00;9.00;;;;;3.62;66.04;100453.66;6219076;22;45323;-87
2022/04/01 10:38:06;;;;;;;;;13.25;10.50;;;;;3.88;66.17;100494.97;6246301;22;45200;-83
2022/04/01 10:41:12;;;;;;;;;17.00;15.00;;;;;3.92;66.56;100499.38;6245953;22;45577;-83
2022/04/01 12:05:02;;;;;;;;;;;;;;;;;;;;;
2022/04/01 12:11:09;;;;;;;;;17.75;15.00;;;;;4.17;65.43;100578.84;6245570;22;45217;-82
2022/04/01 12:28:41;;;;;;;;;19.00;18.00;;;;;4.19;65.34;100593.66;6213199;22;45444;-84
2022/04/01 12:32:10;;;;;;;;;18.00;18.00;;;;;4.24;65.51;100591.16;6187819;22;48313;-82
2022/04/01 12:46:57;;;;;;;;;;;;;;;;;;;;;
2022/04/01 12:53:36;;;;;;;;;22.25;19.50;;;;;4.39;66.80;100614.03;5873679;24;45421;-85
2022/04/01 12:57:42;;;;;;;;;;;;;;;;;;;;;
2022/04/01 13:03:54;;;;;;;;;8.25;7.25;;;;;4.21;66.51;100624.97;5782734;24;45875;-84
2022/04/01 13:07:09;;;;;;;;;11.75;10.25;;;;;3.88;66.53;100586.97;5868930;24;45305;-84
2022/04/01 13:10:11;;;;;;;;;17.25;14.50;;;;;4.10;67.08;100626.50;6006653;23;45520;-85
2022/04/01 13:13:25;;;;;;;;;;;;;;;;;;;;;
2022/04/01 13:16:44;;;;;;;;;8.00;5.50;;;;;3.87;66.37;100574.78;6013956;23;72996;-83
2022/04/01 13:19:30;;;;;;;;;11.75;9.75;;;;;4.10;65.89;100616.94;5970211;23;45312;-83
2022/04/01 16:34:43;;;;;;;;;13.25;12.50;;;;;4.39;65.01;100775.63;6148891;23;45445;-82
2022/04/01 16:41:58;;;;;;;;;;;;;;;;;;;;;
2022/04/01 16:47:35;;;;;;;;;13.00;13.00;;;;;4.39;64.67;100775.63;6089593;23;45360;-83
2022/04/01 16:50:04;;;;;;;;;18.75;14.00;;;;;4.54;64.68;100806.34;6173468;23;45568;-85
2022/04/01 16:52:32;;;;;;;;;18.75;15.50;;;;;4.59;64.76;100809.94;6214338;22;45169;-82
2022/04/01 16:55:05;;;;;;;;;6.50;6.50;;;;;4.36;64.14;100781.66;6246374;22;47285;-84
2022/04/01 16:57:57;;;;;;;;;16.50;16.50;;;;;4.24;64.13;100767.47;6244743;22;45231;-83
2022/04/01 17:00:43;;;;;;;;;12.75;12.50;;;;;4.54;63.70;100820.25;6245136;22;45411;-83
2022/04/01 17:03:19;;;;;;;;;14.75;13.75;;;;;4.53;63.72;100825.44;6248525;22;45486;-83
2022/04/01 17:14:23;;;;;;;;;19.00;14.25;;;;;4.59;63.68;100795.16;6180165;23;45322;-83
2022/04/01 17:17:30;;;;;;;;;11.75;10.75;;;;;4.75;63.10;100824.19;6178813;23;46410;-85
2022/04/01 22:45:24;;;;;;;;;19.25;17.50;;;;;4.12;61.20;101125.88;6274472;22;45963;-87
2022/04/01 22:47:50;;;;;;;;;8.75;8.75;;;;;4.20;60.79;101141.72;6258714;22;45339;-84
2022/04/01 22:50:16;;;;;;;;;14.00;13.25;;;;;4.36;60.58;101172.59;6289730;22;44803;-85
2022/04/01 22:52:41;;;;;;;;;13.50;12.25;;;;;4.37;60.91;101174.34;6262136;22;45570;-85
2022/04/01 22:55:07;;;;;;;;;14.00;13.00;;;;;4.29;60.54;101160.22;6261838;22;48514;-83
2022/04/01 22:57:33;;;;;;;;;12.00;9.75;;;;;4.28;60.81;101158.47;6287074;22;45210;-83
2022/04/01 22:59:59;;;;;;;;;14.50;11.75;;;;;4.32;60.52;101165.50;6262947;22;45368;-85
2022/04/01 23:02:25;;;;;;;;;14.50;14.00;;;;;4.34;60.27;101166.44;6263332;22;45352;-86
2022/04/01 23:04:51;;;;;;;;;14.25;13.00;;;;;4.16;60.29;101140.75;6286902;22;46126;-88
2022/04/01 23:07:17;;;;;;;;;14.00;14.00;;;;;4.22;60.37;101160.88;6261679;22;45602;-83
2022/04/01 23:09:44;;;;;;;;;16.25;13.00;;;;;4.22;60.15;101165.22;6285140;22;45512;-84
2022/04/01 23:12:09;;;;;;;;;14.75;11.25;;;;;4.09;60.34;101140.50;6259927;22;45405;-80
2022/04/01 23:14:39;;;;;;;;;14.25;13.00;;;;;4.27;60.13;101179.25;6282177;22;46684;-83
2022/04/01 23:17:05;;;;;;;;;12.25;12.00;;;;;4.29;60.11;101181.06;6281118;22;45209;-82
2022/04/01 23:19:31;;;;;;;;;16.50;11.75;;;;;4.18;60.22;101151.22;6281318;22;45347;-83
2022/04/01 23:22:00;;;;;;;;;9.75;9.75;;;;;4.09;60.37;101125.78;6255041;22;45583;-81
2022/04/01 23:24:29;;;;;;;;;11.75;10.75;;;;;4.14;60.53;101137.22;6283713;22;45252;-83
2022/04/01 23:27:04;;;;;;;;;16.00;15.00;;;;;4.09;60.48;101128.41;6281856;22;45499;-83
2022/04/01 23:29:32;;;;;;;;;4.75;4.00;;;;;4.18;60.22;101133.84;6252596;22;45432;-84
2022/04/01 23:31:58;;;;;;;;;12.75;12.75;;;;;4.20;60.40;101142.59;6252603;22;45461;-84
2022/04/01 23:34:25;;;;;;;;;12.75;10.25;;;;;4.23;60.22;101141.81;6279397;22;45350;-85
2022/04/01 23:36:52;;;;;;;;;13.50;13.50;;;;;4.24;60.02;101142.69;6279555;22;45273;-85
2022/04/01 23:39:21;;;;;;;;;7.25;6.50;;;;;4.45;59.36;101173.69;6251122;22;45504;-84
2022/04/01 23:41:46;;;;;;;;;3.25;2.00;;;;;4.46;59.11;101168.50;6281341;22;45430;-90
2022/04/01 23:44:14;;;;;;;;;10.00;10.00;;;;;4.43;58.39;101184.94;6249691;22;45508;-85
2022/04/01 23:46:39;;;;;;;;;6.50;5.75;;;;;4.21;58.80;101133.06;6223826;22;45296;-84
2022/04/01 23:49:05;;;;;;;;;9.00;8.25;;;;;4.33;58.37;101155.97;6223019;22;45299;-84
2022/04/01 23:51:32;;;;;;;;;8.75;8.75;;;;;4.36;58.43;101166.50;6250334;22;45571;-84
2022/04/01 23:53:57;;;;;;;;;7.00;7.00;;;;;4.38;58.16;101177.84;6247668;22;47074;-84
2022/04/01 23:56:23;;;;;;;;;8.50;6.25;;;;;4.36;57.89;101170.00;6221952;22;45182;-84
2022/04/01 23:58:49;;;;;;;;;7.00;5.50;;;;;4.31;56.92;101178.53;6221377;22;45214;-84
